createdAt,value
2022-12-23T00:01:25.468Z,41.50
2022-12-23T00:03:56.948Z,46.10
2022-12-23T00:06:24.503Z,44.03
2022-12-23T00:08:58.338Z,42.33
2022-12-23T00:11:28.977Z,39.33
2022-12-23T00:14:21.226Z,37.87
2022-12-23T00:16:50.908Z,41.33
2022-12-23T00:19:18.654Z,39.10
2022-12-23T00:21:46.169Z,42.07
2022-12-23T00:24:14.965Z,40.03
2022-12-23T00:26:42.448Z,41.03
2022-12-23T00:29:09.974Z,41.77
2022-12-23T00:31:37.439Z,41.60
2022-12-23T00:34:04.973Z,40.33
2022-12-23T00:36:32.645Z,41.17
2022-12-23T00:39:19.536Z,47.60
2022-12-23T00:42:08.371Z,43.43
2022-12-23T00:44:36.000Z,43.77
2022-12-23T00:47:03.480Z,40.37
2022-12-23T00:49:43.005Z,40.23
2022-12-23T00:52:15.771Z,40.03
2022-12-23T00:54:43.633Z,40.87
2022-12-23T00:57:11.460Z,30.47
2022-12-23T00:59:39.051Z,28.40
2022-12-23T01:02:25.118Z,28.27
2022-12-23T01:05:11.062Z,25.30
2022-12-23T01:07:38.585Z,27.47
2022-12-23T01:10:06.642Z,29.87
2022-12-23T01:12:34.151Z,27.93
2022-12-23T01:15:01.707Z,24.33
2022-12-23T01:17:29.249Z,24.37
2022-12-23T01:19:56.757Z,24.93
2022-12-23T01:22:26.919Z,26.17
2022-12-23T01:24:54.680Z,24.87
2022-12-23T01:27:22.286Z,24.73
2022-12-23T01:29:49.782Z,24.47
2022-12-23T01:32:17.383Z,25.03
2022-12-23T01:34:45.105Z,25.40
2022-12-23T01:37:12.625Z,26.13
2022-12-23T01:39:40.088Z,26.07
2022-12-23T01:42:37.256Z,26.27
2022-12-23T01:45:25.306Z,24.93
2022-12-23T01:47:55.439Z,28.87
2022-12-23T01:51:09.302Z,29.23
2022-12-23T01:53:44.818Z,34.77
2022-12-23T01:56:42.310Z,39.67
2022-12-23T01:59:34.381Z,41.70
2022-12-23T02:02:23.360Z,40.87
2022-12-23T02:04:52.003Z,40.23
2022-12-23T02:07:38.462Z,38.73
2022-12-23T02:10:08.352Z,35.97
2022-12-23T02:13:07.611Z,34.90
2022-12-23T02:16:18.838Z,43.73
2022-12-23T02:19:10.458Z,55.03
2022-12-23T02:21:37.955Z,42.73
2022-12-23T02:24:20.618Z,35.60
2022-12-23T02:27:14.184Z,35.20
2022-12-23T02:30:27.649Z,38.83
2022-12-23T02:33:03.388Z,31.60
2022-12-23T02:35:58.109Z,33.37
2022-12-23T02:38:40.112Z,35.13
2022-12-23T02:41:24.322Z,36.47
2022-12-23T02:44:00.544Z,34.80
2022-12-23T02:46:47.143Z,34.93
2022-12-23T02:49:40.412Z,34.80
2022-12-23T02:52:14.663Z,31.27
2022-12-23T02:55:06.417Z,29.93
2022-12-23T02:57:39.232Z,30.30
2022-12-23T03:00:08.890Z,36.03
2022-12-23T03:02:40.632Z,32.53
2022-12-23T03:05:39.317Z,32.90
2022-12-23T03:08:21.238Z,30.90
2022-12-23T03:11:16.368Z,29.53
2022-12-23T03:13:57.678Z,29.80
2022-12-23T03:16:29.624Z,28.13
2022-12-23T03:19:00.028Z,22.47
2022-12-23T03:22:07.387Z,21.87
2022-12-23T03:25:07.361Z,12.87
2022-12-23T03:27:41.520Z,13.43
2022-12-23T03:30:15.425Z,12.07
2022-12-23T03:33:26.549Z,11.53
2022-12-23T03:36:02.733Z,12.87
2022-12-23T03:38:34.522Z,12.10
2022-12-23T03:41:15.635Z,12.77
2022-12-23T03:43:57.055Z,13.93
2022-12-23T03:46:39.396Z,16.93
2022-12-23T03:49:14.974Z,14.70
2022-12-23T03:51:59.346Z,15.17
2022-12-23T03:54:36.484Z,15.83
2022-12-23T03:57:08.444Z,14.40
2022-12-23T03:59:41.370Z,13.37
2022-12-23T04:02:25.187Z,12.93
2022-12-23T04:05:25.819Z,13.17
2022-12-23T04:08:18.007Z,12.73
2022-12-23T04:10:46.520Z,13.03
2022-12-23T04:13:14.060Z,13.20
2022-12-23T04:15:42.666Z,12.80
2022-12-23T04:18:12.321Z,12.20
2022-12-23T04:20:39.952Z,11.67
2022-12-23T04:23:07.447Z,12.40
2022-12-23T04:25:34.937Z,12.27
2022-12-23T04:28:02.455Z,13.67
2022-12-23T04:30:34.217Z,16.37
2022-12-23T04:33:04.060Z,15.17
2022-12-23T04:35:31.831Z,15.27
2022-12-23T04:37:59.324Z,15.57
2022-12-23T04:40:28.221Z,15.30
2022-12-23T04:42:55.756Z,17.73
2022-12-23T04:45:23.474Z,18.87
2022-12-23T04:47:51.239Z,21.67
2022-12-23T04:50:18.820Z,21.77
2022-12-23T04:52:46.358Z,21.90
2022-12-23T04:55:13.880Z,19.77
2022-12-23T04:57:41.485Z,17.23
2022-12-23T05:00:10.082Z,14.77
2022-12-23T05:02:39.742Z,14.23
2022-12-23T05:05:07.743Z,14.30
2022-12-23T05:07:35.394Z,14.73
2022-12-23T05:10:03.206Z,14.23
2022-12-23T05:12:32.079Z,15.73
2022-12-23T05:14:59.545Z,14.73
2022-12-23T05:17:27.090Z,15.03
2022-12-23T05:19:54.634Z,14.57
2022-12-23T05:22:22.313Z,16.17
2022-12-23T05:24:50.392Z,16.43
2022-12-23T05:27:19.588Z,16.50
2022-12-23T05:29:47.085Z,15.60
2022-12-23T05:32:14.605Z,14.53
2022-12-23T05:34:42.229Z,15.03
2022-12-23T05:37:10.281Z,14.70
2022-12-23T05:39:37.849Z,14.67
2022-12-23T05:42:05.764Z,15.73
2022-12-23T05:44:33.441Z,13.50
2022-12-23T05:47:02.212Z,14.27
2022-12-23T05:49:30.135Z,15.87
2022-12-23T05:51:57.636Z,15.30
2022-12-23T05:54:25.426Z,16.03
2022-12-23T05:56:52.873Z,14.53
2022-12-23T05:59:21.452Z,17.80
2022-12-23T06:01:49.078Z,19.83
2022-12-23T06:04:17.991Z,17.93
2022-12-23T06:06:45.601Z,14.87
2022-12-23T06:09:13.211Z,15.90
2022-12-23T06:11:40.666Z,14.53
2022-12-23T06:14:08.480Z,14.40
2022-12-23T06:16:37.121Z,57.83
2022-12-23T06:19:05.179Z,19.50
2022-12-23T06:21:32.750Z,15.27
2022-12-23T06:24:00.385Z,16.07
2022-12-23T06:26:28.409Z,20.77
2022-12-23T06:28:55.904Z,22.03
2022-12-23T06:31:23.693Z,24.10
2022-12-23T06:33:51.169Z,25.50
2022-12-23T06:36:18.833Z,24.83
2022-12-23T06:38:46.314Z,30.73
2022-12-23T06:41:13.820Z,31.20
2022-12-23T06:43:41.256Z,31.20
2022-12-23T06:46:08.792Z,30.63
2022-12-23T06:48:36.484Z,33.53
2022-12-23T06:51:04.144Z,38.37
2022-12-23T06:53:31.642Z,38.73
2022-12-23T06:56:03.154Z,39.57
2022-12-23T06:58:30.717Z,30.40
2022-12-23T07:00:58.480Z,36.93
2022-12-23T07:03:26.329Z,32.73
2022-12-23T07:05:54.759Z,18.20
2022-12-23T07:08:22.439Z,15.20
2022-12-23T07:10:49.997Z,16.17
2022-12-23T07:13:17.461Z,15.37
2022-12-23T07:15:46.306Z,16.47
2022-12-23T07:18:13.796Z,14.77
2022-12-23T07:20:41.447Z,18.90
2022-12-23T07:23:08.905Z,18.03
2022-12-23T07:25:36.474Z,14.70
2022-12-23T07:28:04.073Z,13.20
2022-12-23T07:30:31.554Z,14.17
2022-12-23T07:32:59.200Z,14.23
2022-12-23T07:35:26.693Z,27.00
2022-12-23T07:37:56.063Z,18.63
2022-12-23T07:40:24.858Z,18.53
2022-12-23T07:42:58.695Z,18.87
2022-12-23T07:45:27.968Z,19.63
2022-12-23T07:47:57.994Z,22.77
2022-12-23T07:50:26.665Z,27.63
2022-12-23T07:52:55.924Z,38.33
2022-12-23T07:55:24.457Z,75.17
2022-12-23T07:57:53.419Z,22.00
2022-12-23T08:00:22.257Z,15.33
2022-12-23T08:02:49.947Z,25.70
2022-12-23T08:05:18.996Z,28.97
2022-12-23T08:07:46.747Z,15.70
2022-12-23T08:10:14.335Z,17.30
2022-12-23T08:12:42.635Z,12.47
2022-12-23T08:15:10.472Z,11.37
2022-12-23T08:17:38.046Z,10.53
2022-12-23T08:20:06.873Z,9.27
2022-12-23T08:22:34.497Z,8.87
2022-12-23T08:25:02.121Z,8.70
2022-12-23T08:27:29.891Z,10.17
2022-12-23T08:29:57.508Z,8.10
2022-12-23T08:32:28.117Z,28.43
2022-12-23T08:34:58.457Z,8.03
2022-12-23T08:37:29.131Z,19.80
2022-12-23T08:39:57.256Z,9.63
2022-12-23T08:44:55.895Z,64.23
2022-12-23T08:47:23.462Z,18.10
2022-12-23T08:49:51.079Z,9.20
2022-12-23T08:52:18.633Z,7.87
2022-12-23T08:54:46.148Z,7.80
2022-12-23T08:57:13.713Z,7.53
2022-12-23T08:59:41.201Z,7.93
2022-12-23T09:02:12.462Z,8.43
2022-12-23T09:04:40.162Z,9.30
2022-12-23T09:07:07.619Z,9.07
2022-12-23T09:09:36.464Z,10.73
2022-12-23T09:12:04.576Z,11.33
2022-12-23T09:14:32.200Z,9.97
2022-12-23T09:16:59.817Z,12.00
2022-12-23T09:19:27.728Z,9.80
2022-12-23T09:21:55.433Z,9.93
2022-12-23T09:24:25.690Z,9.63
2022-12-23T09:26:53.307Z,10.63
2022-12-23T09:29:21.052Z,10.33
2022-12-23T09:31:48.637Z,11.17
2022-12-23T09:34:16.176Z,10.50
2022-12-23T09:36:43.955Z,10.10
2022-12-23T09:39:11.573Z,11.57
2022-12-23T09:42:01.896Z,11.40
2022-12-23T09:44:46.556Z,10.90
2022-12-23T09:47:22.670Z,11.30
2022-12-23T09:50:07.268Z,10.93
2022-12-23T09:53:04.764Z,11.37
2022-12-23T09:56:15.643Z,11.00
2022-12-23T09:59:39.016Z,11.10
2022-12-23T10:02:25.310Z,11.87
2022-12-23T10:05:35.533Z,12.20
2022-12-23T10:08:13.305Z,12.40
2022-12-23T10:10:50.131Z,12.70
2022-12-23T10:13:29.849Z,14.67
2022-12-23T10:16:04.622Z,19.97
2022-12-23T10:18:55.845Z,20.47
2022-12-23T10:21:47.987Z,22.13
2022-12-23T10:24:40.045Z,17.47
2022-12-23T10:27:37.699Z,18.67
2022-12-23T10:30:34.123Z,16.70
2022-12-23T10:33:12.270Z,16.53
2022-12-23T10:35:48.501Z,13.73
2022-12-23T10:38:49.439Z,15.00
2022-12-23T10:41:41.879Z,22.27
2022-12-23T10:44:40.231Z,16.93
2022-12-23T10:47:42.225Z,16.40
2022-12-23T10:50:50.999Z,24.13
2022-12-23T10:53:31.244Z,20.50
2022-12-23T10:55:59.560Z,20.20
2022-12-23T10:58:27.612Z,29.67
2022-12-23T11:01:09.917Z,17.03
2022-12-23T11:04:16.142Z,19.77
2022-12-23T11:06:52.853Z,19.03
2022-12-23T11:09:40.631Z,23.20
2022-12-23T11:12:13.127Z,19.53
2022-12-23T11:14:50.915Z,17.20
2022-12-23T11:17:23.213Z,24.00
2022-12-23T11:20:18.670Z,27.90
2022-12-23T11:23:02.474Z,96.37
2022-12-23T11:25:41.880Z,38.63
2022-12-23T11:28:18.370Z,32.80
2022-12-23T11:31:12.297Z,21.57
2022-12-23T11:34:02.843Z,18.33
2022-12-23T11:36:32.366Z,21.13
2022-12-23T11:39:05.618Z,17.07
2022-12-23T11:41:44.590Z,15.53
2022-12-23T11:44:49.481Z,22.10
2022-12-23T11:47:22.755Z,17.37
2022-12-23T11:49:54.686Z,17.93
2022-12-23T11:52:27.652Z,19.50
2022-12-23T11:55:01.822Z,32.47
2022-12-23T11:57:45.100Z,18.53
2022-12-23T12:00:23.150Z,16.47
2022-12-23T12:02:57.211Z,19.33
2022-12-23T12:05:48.186Z,18.90
2022-12-23T12:08:25.396Z,22.80
2022-12-23T12:10:56.600Z,29.57
2022-12-23T12:14:06.557Z,19.37
2022-12-23T12:17:05.269Z,19.70
2022-12-23T12:20:00.152Z,25.13
2022-12-23T12:22:36.962Z,22.90
2022-12-23T12:25:24.509Z,20.97
2022-12-23T12:28:01.624Z,23.67
2022-12-23T12:30:46.837Z,20.40
2022-12-23T12:33:35.072Z,18.67
2022-12-23T12:36:36.586Z,17.80
2022-12-23T12:39:04.877Z,17.57
2022-12-23T12:41:41.000Z,19.17
2022-12-23T12:44:33.020Z,18.67
2022-12-23T12:47:54.191Z,24.03
2022-12-23T12:50:29.791Z,14.87
2022-12-23T12:53:06.274Z,45.10
2022-12-23T12:55:42.755Z,28.77
2022-12-23T12:58:21.917Z,19.30
2022-12-23T13:01:24.443Z,67.40
2022-12-23T13:04:18.114Z,25.80
2022-12-23T13:07:00.503Z,26.43
2022-12-23T13:09:52.910Z,17.47
2022-12-23T13:12:43.245Z,18.83
2022-12-23T13:15:37.258Z,18.20
2022-12-23T13:18:40.209Z,22.00
2022-12-23T13:21:30.645Z,26.13
2022-12-23T13:24:32.897Z,24.17
2022-12-23T13:27:34.052Z,25.90
2022-12-23T13:30:18.037Z,24.57
2022-12-23T13:33:19.531Z,28.13
2022-12-23T13:39:11.591Z,24.30
2022-12-23T13:41:53.198Z,27.37
2022-12-23T13:44:22.889Z,33.27
2022-12-23T13:47:14.374Z,32.97
2022-12-23T13:50:31.436Z,29.33
2022-12-23T13:53:25.096Z,28.73
2022-12-23T13:56:16.265Z,33.80
2022-12-23T13:58:49.404Z,58.57
2022-12-23T14:01:17.822Z,51.47
2022-12-23T14:03:48.855Z,53.57
2022-12-23T14:06:25.109Z,60.00
2022-12-23T14:08:54.503Z,67.67
2022-12-23T14:11:32.175Z,71.80
2022-12-23T14:14:06.295Z,73.63
2022-12-23T14:16:42.947Z,52.70
2022-12-23T14:19:38.196Z,46.27
2022-12-23T14:22:23.530Z,45.77
2022-12-23T14:25:13.877Z,44.80
2022-12-23T14:27:52.662Z,46.43
2022-12-23T14:30:45.032Z,47.73
2022-12-23T14:33:36.045Z,59.87
2022-12-23T14:36:27.482Z,57.23
2022-12-23T14:39:14.113Z,108.73
2022-12-23T14:42:05.151Z,101.83
2022-12-23T14:44:39.169Z,46.67
2022-12-23T14:47:40.380Z,84.17
2022-12-23T14:50:59.091Z,237.13
2022-12-23T14:53:34.148Z,248.83
2022-12-23T14:56:19.306Z,139.87
2022-12-23T14:59:09.495Z,141.90
2022-12-23T15:01:50.406Z,191.90
2022-12-23T15:04:35.581Z,180.33
2022-12-23T15:07:17.264Z,157.63
2022-12-23T15:10:01.254Z,109.00
2022-12-23T15:12:41.579Z,91.10
2022-12-23T15:15:21.842Z,132.30
2022-12-23T15:18:00.955Z,101.67
2022-12-23T15:20:30.021Z,94.40
2022-12-23T15:23:08.126Z,128.27
2022-12-23T15:25:42.716Z,143.93
2022-12-23T15:28:40.396Z,118.50
2022-12-23T15:31:29.975Z,96.80
2022-12-23T15:34:03.956Z,97.43
2022-12-23T15:36:40.540Z,74.87
2022-12-23T15:39:21.111Z,89.67
2022-12-23T15:41:49.756Z,93.30
2022-12-23T15:44:24.639Z,93.23
2022-12-23T15:46:53.057Z,98.73
2022-12-23T15:49:22.490Z,96.47
2022-12-23T15:52:07.881Z,96.40
2022-12-23T15:55:12.932Z,99.57
2022-12-23T15:57:50.336Z,107.73
2022-12-23T16:00:31.193Z,105.20
2022-12-23T16:03:04.577Z,103.27
2022-12-23T16:06:06.134Z,105.77
2022-12-23T16:08:34.080Z,99.97
2022-12-23T16:11:20.764Z,110.00
2022-12-23T16:14:28.737Z,107.40
2022-12-23T16:17:01.971Z,557.60
2022-12-23T16:19:49.152Z,178.93
2022-12-23T16:22:39.778Z,373.97
2022-12-23T16:25:27.188Z,208.13
2022-12-23T16:28:13.079Z,208.00
2022-12-23T16:30:44.350Z,208.07
2022-12-23T16:34:08.121Z,255.63
2022-12-23T16:36:37.665Z,314.23
2022-12-23T16:39:21.869Z,316.73
2022-12-23T16:41:50.979Z,306.23
2022-12-23T16:44:18.556Z,296.67
2022-12-23T16:46:50.110Z,281.37
2022-12-23T16:49:27.944Z,288.53
2022-12-23T16:51:59.133Z,242.60
2022-12-23T16:54:27.968Z,240.13
2022-12-23T16:56:56.665Z,213.63
2022-12-23T16:59:25.996Z,217.67
2022-12-23T17:01:58.126Z,340.17
2022-12-23T17:04:30.644Z,287.53
2022-12-23T17:06:59.250Z,249.33
2022-12-23T17:09:26.878Z,234.50
2022-12-23T17:11:56.383Z,233.20
2022-12-23T17:14:46.139Z,246.93
2022-12-23T17:17:16.058Z,233.77
2022-12-23T17:19:43.855Z,247.53
2022-12-23T17:22:13.987Z,226.43
2022-12-23T17:24:44.088Z,228.60
2022-12-23T17:27:20.853Z,220.23
2022-12-23T17:29:48.472Z,222.23
2022-12-23T17:32:19.440Z,228.50
2022-12-23T17:34:47.825Z,213.90
2022-12-23T17:37:23.563Z,215.13
2022-12-23T17:39:54.341Z,198.80
2022-12-23T17:42:26.018Z,225.37
2022-12-23T17:44:54.515Z,235.43
2022-12-23T17:47:23.235Z,238.63
2022-12-23T17:49:52.109Z,319.07
2022-12-23T17:52:25.363Z,221.47
2022-12-23T17:54:54.647Z,253.57
2022-12-23T17:57:26.983Z,247.37
2022-12-23T17:59:56.946Z,238.60
2022-12-23T18:02:32.963Z,235.63
2022-12-23T18:05:29.495Z,248.80
2022-12-23T18:08:00.010Z,237.50
2022-12-23T18:10:37.395Z,239.30
2022-12-23T18:13:15.632Z,278.53
2022-12-23T18:15:46.880Z,263.73
2022-12-23T18:18:16.772Z,266.10
2022-12-23T18:20:53.296Z,267.57
2022-12-23T18:23:28.717Z,221.37
2022-12-23T18:25:58.245Z,198.00
2022-12-23T18:28:25.995Z,187.37
2022-12-23T18:30:56.764Z,177.63
2022-12-23T18:33:28.798Z,136.97
2022-12-23T18:35:56.985Z,140.97
2022-12-23T18:38:28.126Z,140.27
2022-12-23T18:40:56.775Z,140.43
2022-12-23T18:43:26.661Z,135.70
2022-12-23T18:45:58.816Z,132.67
2022-12-23T18:48:28.268Z,90.70
2022-12-23T18:50:57.305Z,92.97
2022-12-23T18:53:32.844Z,88.30
2022-12-23T18:56:00.455Z,84.87
2022-12-23T18:58:30.737Z,79.80
2022-12-23T19:01:00.542Z,81.93
2022-12-23T19:03:33.758Z,76.77
2022-12-23T19:06:06.825Z,81.23
2022-12-23T19:08:37.095Z,79.77
2022-12-23T19:11:21.016Z,84.00
2022-12-23T19:13:48.875Z,80.77
2022-12-23T19:16:20.493Z,81.33
2022-12-23T19:18:52.235Z,88.43
2022-12-23T19:21:22.938Z,84.47
2022-12-23T19:23:53.676Z,81.63
2022-12-23T19:26:24.489Z,75.53
2022-12-23T19:28:53.281Z,77.90
2022-12-23T19:31:21.013Z,76.50
2022-12-23T19:33:49.189Z,72.03
2022-12-23T19:36:25.003Z,73.40
2022-12-23T19:38:53.862Z,69.27
2022-12-23T19:41:21.412Z,63.73
2022-12-23T19:43:49.244Z,58.30
2022-12-23T19:46:18.700Z,57.70
2022-12-23T19:48:52.983Z,55.27
2022-12-23T19:51:24.411Z,50.47
2022-12-23T19:53:55.188Z,49.50
2022-12-23T19:56:26.228Z,45.07
2022-12-23T19:58:54.220Z,43.23
2022-12-23T20:01:26.807Z,41.03
2022-12-23T20:03:57.321Z,37.27
2022-12-23T20:06:33.277Z,35.73
2022-12-23T20:09:06.549Z,37.90
2022-12-23T20:11:40.981Z,38.73
2022-12-23T20:14:10.043Z,41.33
2022-12-23T20:16:41.931Z,39.40
2022-12-23T20:19:11.737Z,34.37
2022-12-23T20:21:39.537Z,29.73
2022-12-23T20:24:08.113Z,25.17
2022-12-23T20:26:35.903Z,25.23
2022-12-23T20:29:23.630Z,26.27
2022-12-23T20:31:51.348Z,25.40
2022-12-23T20:34:19.095Z,27.77
2022-12-23T20:36:49.148Z,27.83
2022-12-23T20:39:20.663Z,27.43
2022-12-23T20:41:51.147Z,28.13
2022-12-23T20:44:37.992Z,29.10
2022-12-23T20:47:10.602Z,30.27
2022-12-23T20:49:38.465Z,33.13
2022-12-23T20:52:07.413Z,34.00
2022-12-23T20:54:36.411Z,32.07
2022-12-23T20:57:04.516Z,38.03
2022-12-23T20:59:33.404Z,46.77
2022-12-23T21:02:01.617Z,44.50
2022-12-23T21:04:29.383Z,50.57
2022-12-23T21:06:57.509Z,54.67
2022-12-23T21:09:25.160Z,56.23
2022-12-23T21:11:53.931Z,56.50
2022-12-23T21:14:21.975Z,60.90
2022-12-23T21:16:49.779Z,57.63
2022-12-23T21:19:21.297Z,59.47
2022-12-23T21:21:52.967Z,57.87
2022-12-23T21:24:21.394Z,57.70
2022-12-23T21:26:56.469Z,53.77
2022-12-23T21:29:26.511Z,51.90
2022-12-23T21:31:55.893Z,58.33
2022-12-23T21:34:23.612Z,52.83
2022-12-23T21:36:53.873Z,51.90
2022-12-23T21:39:21.445Z,51.93
2022-12-23T21:41:51.460Z,51.30
2022-12-23T21:44:19.347Z,50.97
2022-12-23T21:46:47.063Z,54.53
2022-12-23T21:49:14.990Z,51.67
2022-12-23T21:51:42.464Z,54.17
2022-12-23T21:54:11.851Z,50.33
2022-12-23T21:56:40.951Z,49.30
2022-12-23T21:59:14.508Z,48.70
2022-12-23T22:01:43.545Z,50.33
2022-12-23T22:04:11.683Z,50.73
2022-12-23T22:06:46.007Z,52.00
2022-12-23T22:09:19.827Z,50.27
2022-12-23T22:11:48.797Z,68.10
2022-12-23T22:14:20.817Z,65.87
2022-12-23T22:16:49.406Z,74.93
2022-12-23T22:19:17.172Z,59.13
2022-12-23T22:21:44.714Z,63.37
2022-12-23T22:24:12.996Z,62.37
2022-12-23T22:26:41.458Z,61.53
2022-12-23T22:29:10.459Z,66.90
2022-12-23T22:31:53.162Z,61.70
2022-12-23T22:34:22.967Z,60.23
2022-12-23T22:36:50.716Z,62.50
2022-12-23T22:39:22.037Z,67.90
2022-12-23T22:41:52.059Z,70.40
2022-12-23T22:44:21.932Z,79.17
2022-12-23T22:46:50.208Z,80.27
2022-12-23T22:49:18.210Z,83.20
2022-12-23T22:51:46.028Z,81.27
2022-12-23T22:54:14.258Z,79.97
2022-12-23T22:56:42.028Z,85.97
2022-12-23T22:59:21.123Z,93.03
2022-12-23T23:01:50.302Z,93.03
2022-12-23T23:04:19.153Z,100.07
2022-12-23T23:06:46.715Z,96.60
2022-12-23T23:09:18.858Z,89.07
2022-12-23T23:11:46.781Z,87.30
2022-12-23T23:14:14.449Z,80.83
2022-12-23T23:16:42.321Z,70.97
2022-12-23T23:19:12.298Z,68.63
2022-12-23T23:21:40.450Z,61.63
2022-12-23T23:24:08.600Z,51.57
2022-12-23T23:26:36.269Z,57.60
2022-12-23T23:29:03.865Z,59.00
2022-12-23T23:31:41.885Z,57.00
2022-12-23T23:34:14.003Z,81.60
2022-12-23T23:36:41.734Z,69.67
2022-12-23T23:39:12.027Z,75.57
2022-12-23T23:41:41.018Z,73.47
2022-12-23T23:44:08.893Z,69.70
2022-12-23T23:46:36.546Z,57.40
2022-12-23T23:49:07.226Z,50.43
2022-12-23T23:51:35.115Z,53.20
2022-12-23T23:54:02.641Z,56.10
2022-12-23T23:56:37.488Z,50.07
2022-12-23T23:59:05.622Z,51.87
